createdAt,value
2019-04-22T00:00:46.530Z,4.55
2019-04-22T00:03:16.774Z,4.47
2019-04-22T00:06:06.574Z,4.42
2019-04-22T00:08:46.304Z,4.10
2019-04-22T00:11:11.026Z,3.95
2019-04-22T00:13:46.903Z,4.40
2019-04-22T00:16:07.150Z,4.75
2019-04-22T00:18:54.834Z,4.40
2019-04-22T00:21:13.006Z,3.75
2019-04-22T00:23:49.695Z,4.30
2019-04-22T00:26:16.403Z,4.10
2019-04-22T00:28:50.004Z,3.50
2019-04-22T00:31:15.552Z,3.90
2019-04-22T00:33:48.086Z,3.77
2019-04-22T00:36:17.798Z,3.83
2019-04-22T00:38:51.641Z,3.77
2019-04-22T00:41:23.215Z,3.90
2019-04-22T00:43:58.157Z,3.40
2019-04-22T00:46:25.266Z,3.50
2019-04-22T00:49:18.983Z,4.00
2019-04-22T00:51:47.485Z,3.60
2019-04-22T00:53:54.624Z,3.75
2019-04-22T00:56:24.705Z,3.70
2019-04-22T00:58:50.221Z,3.80
2019-04-22T01:01:26.245Z,4.05
2019-04-22T01:06:25.838Z,3.42
2019-04-22T01:09:02.620Z,4.08
2019-04-22T01:11:37.845Z,3.62
2019-04-22T01:13:55.912Z,3.60
2019-04-22T01:16:32.432Z,3.75
2019-04-22T01:19:00.038Z,4.03
2019-04-22T01:21:36.991Z,3.42
2019-04-22T01:23:59.880Z,3.75
2019-04-22T01:26:25.333Z,3.75
2019-04-22T01:28:53.579Z,3.30
2019-04-22T01:31:17.896Z,3.40
2019-04-22T01:33:48.324Z,3.70
2019-04-22T01:36:33.530Z,3.75
2019-04-22T01:39:02.379Z,3.30
2019-04-22T01:41:48.884Z,3.80
2019-04-22T01:44:31.434Z,3.70
2019-04-22T01:46:47.771Z,3.75
2019-04-22T01:49:14.683Z,3.85
2019-04-22T01:51:54.289Z,3.80
2019-04-22T01:56:47.085Z,3.40
2019-04-22T01:59:05.112Z,3.65
2019-04-22T02:04:23.229Z,3.80
2019-04-22T02:06:48.280Z,3.87
2019-04-22T02:09:24.494Z,3.60
2019-04-22T02:14:20.295Z,3.75
2019-04-22T02:16:50.315Z,3.22
2019-04-22T02:19:26.770Z,3.58
2019-04-22T02:21:48.803Z,3.40
2019-04-22T02:24:26.538Z,3.90
2019-04-22T02:29:27.188Z,3.80
2019-04-22T02:32:04.072Z,3.87
2019-04-22T02:36:56.349Z,3.83
2019-04-22T02:39:24.585Z,4.40
2019-04-22T02:41:54.980Z,3.77
2019-04-22T02:44:43.243Z,3.58
2019-04-22T02:47:36.498Z,3.62
2019-04-22T02:49:29.222Z,4.10
2019-04-22T02:52:06.847Z,3.55
2019-04-22T02:54:41.839Z,4.12
2019-04-22T02:57:03.722Z,4.00
2019-04-22T02:59:32.561Z,3.85
2019-04-22T03:02:19.034Z,4.10
2019-04-22T03:04:31.890Z,3.95
2019-04-22T03:06:55.637Z,4.12
2019-04-22T03:09:35.751Z,3.85
2019-04-22T03:12:11.306Z,4.37
2019-04-22T03:14:38.145Z,4.42
2019-04-22T03:17:11.237Z,4.25
2019-04-22T03:22:08.220Z,4.17
2019-04-22T03:27:02.954Z,4.45
2019-04-22T03:37:45.579Z,4.17
2019-04-22T03:42:45.679Z,4.53
2019-04-22T03:47:43.595Z,4.87
2019-04-22T03:50:20.690Z,4.95
2019-04-22T03:52:44.579Z,4.62
2019-04-22T03:55:09.223Z,5.15
2019-04-22T03:57:55.937Z,5.65
2019-04-22T04:00:17.952Z,4.80
2019-04-22T04:02:47.001Z,5.15
2019-04-22T04:05:29.550Z,5.60
2019-04-22T04:10:35.426Z,5.20
2019-04-22T04:13:02.872Z,5.75
2019-04-22T04:18:05.942Z,5.25
2019-04-22T04:25:32.112Z,6.10
2019-04-22T04:30:30.133Z,6.12
2019-04-22T04:32:54.722Z,5.83
2019-04-22T04:35:44.336Z,5.42
2019-04-22T04:40:31.172Z,6.00
2019-04-22T04:42:53.372Z,6.60
2019-04-22T04:48:01.136Z,6.30
2019-04-22T04:50:18.340Z,6.50
2019-04-22T04:58:09.983Z,6.67
2019-04-22T05:05:29.308Z,6.62
2019-04-22T05:08:19.811Z,6.78
2019-04-22T05:10:41.178Z,6.85
2019-04-22T05:13:07.155Z,7.22
2019-04-22T05:15:29.738Z,7.33
2019-04-22T05:18:05.806Z,7.35
2019-04-22T05:20:44.801Z,7.25
2019-04-22T05:22:51.613Z,7.50
2019-04-22T05:25:24.909Z,7.40
2019-04-22T05:28:11.870Z,7.87
2019-04-22T05:30:26.674Z,7.35
2019-04-22T05:32:59.229Z,7.92
2019-04-22T05:35:32.230Z,8.10
2019-04-22T05:38:06.536Z,7.58
2019-04-22T05:40:45.787Z,8.05
2019-04-22T05:43:00.174Z,8.55
2019-04-22T05:45:33.078Z,8.65
2019-04-22T05:48:01.307Z,8.43
2019-04-22T05:50:27.143Z,9.03
2019-04-22T05:53:00.784Z,9.05
2019-04-22T05:55:35.989Z,9.90
2019-04-22T06:01:07.196Z,9.65
2019-04-22T06:03:20.979Z,9.73
2019-04-22T06:05:41.730Z,9.58
2019-04-22T06:08:13.347Z,8.80
2019-04-22T06:10:45.849Z,9.53
2019-04-22T06:15:37.633Z,9.88
2019-04-22T06:18:22.737Z,9.08
2019-04-22T06:20:55.817Z,9.08
2019-04-22T06:23:28.447Z,9.30
2019-04-22T06:26:07.887Z,9.48
2019-04-22T06:28:31.042Z,9.70
2019-04-22T06:30:57.517Z,9.05
2019-04-22T06:35:56.353Z,9.05
2019-04-22T06:40:55.388Z,8.65
2019-04-22T06:43:24.507Z,9.58
2019-04-22T06:45:57.707Z,8.55
2019-04-22T06:48:23.732Z,8.85
2019-04-22T06:50:52.800Z,9.05
2019-04-22T06:53:31.148Z,9.00
2019-04-22T06:56:12.594Z,10.05
2019-04-22T06:58:33.606Z,9.08
2019-04-22T07:01:19.615Z,9.28
2019-04-22T07:03:44.175Z,9.13
2019-04-22T07:05:59.643Z,8.93
2019-04-22T07:09:00.804Z,9.90
2019-04-22T07:10:54.860Z,10.43
2019-04-22T07:16:00.384Z,10.13
2019-04-22T07:21:01.425Z,8.90
2019-04-22T07:23:37.516Z,9.13
2019-04-22T07:26:04.379Z,8.98
2019-04-22T07:28:29.991Z,8.63
2019-04-22T07:31:03.890Z,9.13
2019-04-22T07:33:37.916Z,9.40
2019-04-22T07:38:29.828Z,8.70
2019-04-22T07:41:05.643Z,9.05
2019-04-22T07:43:51.664Z,9.18
2019-04-22T07:46:09.579Z,9.23
2019-04-22T07:51:07.490Z,9.35
2019-04-22T07:53:33.848Z,8.55
2019-04-22T07:56:11.904Z,9.25
2019-04-22T07:58:43.322Z,9.03
2019-04-22T08:01:15.370Z,9.50
2019-04-22T08:03:53.381Z,8.98
2019-04-22T08:08:45.574Z,8.15
2019-04-22T08:11:30.103Z,8.78
2019-04-22T08:13:43.889Z,8.85
2019-04-22T08:16:16.835Z,9.25
2019-04-22T08:18:46.011Z,8.55
2019-04-22T08:21:09.468Z,8.68
2019-04-22T08:23:55.445Z,8.20
2019-04-22T08:26:25.127Z,8.35
2019-04-22T08:28:55.801Z,8.80
2019-04-22T08:31:20.384Z,8.38
2019-04-22T08:33:46.634Z,8.40
2019-04-22T08:38:55.974Z,8.88
2019-04-22T08:43:57.615Z,8.88
2019-04-22T08:46:36.499Z,8.60
2019-04-22T08:49:05.861Z,8.15
2019-04-22T08:51:25.066Z,7.92
2019-04-22T08:53:59.813Z,8.25
2019-04-22T08:56:33.675Z,8.30
2019-04-22T08:59:02.680Z,7.42
2019-04-22T09:01:28.310Z,7.67
2019-04-22T09:04:03.760Z,8.18
2019-04-22T09:06:48.004Z,8.40
2019-04-22T09:09:04.223Z,8.35
2019-04-22T09:11:35.614Z,8.43
2019-04-22T09:14:03.798Z,7.92
2019-04-22T09:24:04.963Z,8.10
2019-04-22T09:26:36.108Z,8.18
2019-04-22T09:29:06.480Z,8.90
2019-04-22T09:31:35.880Z,8.20
2019-04-22T09:34:06.800Z,8.58
2019-04-22T09:39:12.308Z,8.15
2019-04-22T09:41:42.993Z,8.30
2019-04-22T09:44:26.261Z,8.40
2019-04-22T09:46:44.075Z,8.10
2019-04-22T09:49:15.504Z,8.35
2019-04-22T09:51:36.944Z,8.33
2019-04-22T09:54:20.152Z,8.68
2019-04-22T09:56:43.770Z,8.38
2019-04-22T09:59:10.887Z,8.08
2019-04-22T10:01:47.363Z,8.25
2019-04-22T10:04:25.388Z,8.25
2019-04-22T10:06:54.457Z,7.95
2019-04-22T10:11:57.734Z,9.03
2019-04-22T10:19:21.504Z,9.13
2019-04-22T10:21:50.147Z,9.10
2019-04-22T10:24:13.513Z,9.35
2019-04-22T10:26:43.879Z,9.00
2019-04-22T10:29:18.253Z,8.78
2019-04-22T10:31:49.484Z,8.70
2019-04-22T10:34:09.299Z,9.20
2019-04-22T10:36:25.586Z,9.25
2019-04-22T10:38:54.809Z,9.30
2019-04-22T10:41:23.852Z,9.48
2019-04-22T10:43:52.978Z,9.33
2019-04-22T10:46:22.178Z,10.10
2019-04-22T10:48:52.648Z,9.48
2019-04-22T10:51:22.344Z,10.03
2019-04-22T10:53:51.326Z,9.60
2019-04-22T10:56:20.956Z,10.08
2019-04-22T10:58:50.801Z,10.10
2019-04-22T11:01:21.096Z,9.23
2019-04-22T11:03:51.120Z,10.23
2019-04-22T11:06:21.333Z,10.13
2019-04-22T11:08:56.196Z,10.40
2019-04-22T11:11:33.636Z,10.38
2019-04-22T11:13:51.960Z,9.43
2019-04-22T11:16:21.523Z,9.70
2019-04-22T11:18:51.719Z,9.48
2019-04-22T11:21:20.602Z,9.88
2019-04-22T11:23:50.409Z,9.75
2019-04-22T11:26:19.880Z,9.33
2019-04-22T11:28:49.663Z,9.55
2019-04-22T11:31:18.815Z,9.40
2019-04-22T11:33:48.390Z,9.38
2019-04-22T11:36:17.704Z,9.23
2019-04-22T11:38:53.010Z,8.65
2019-04-22T11:41:17.398Z,9.25
2019-04-22T11:43:47.357Z,8.90
2019-04-22T11:46:17.628Z,9.20
2019-04-22T11:48:47.731Z,9.70
2019-04-22T11:51:18.023Z,9.33
2019-04-22T11:53:47.355Z,9.88
2019-04-22T11:56:16.832Z,9.78
2019-04-22T11:58:46.941Z,9.65
2019-04-22T12:01:16.890Z,10.08
2019-04-22T12:03:46.341Z,9.45
2019-04-22T12:06:15.812Z,9.38
2019-04-22T12:08:45.874Z,9.75
2019-04-22T12:11:16.665Z,9.80
2019-04-22T12:13:46.289Z,9.30
2019-04-22T12:16:15.425Z,9.28
2019-04-22T12:18:47.118Z,8.90
2019-04-22T12:21:17.127Z,9.50
2019-04-22T12:23:47.240Z,8.93
2019-04-22T12:26:19.204Z,8.35
2019-04-22T12:28:48.850Z,9.83
2019-04-22T12:31:17.857Z,8.80
2019-04-22T12:33:47.637Z,9.33
2019-04-22T12:36:18.138Z,9.38
2019-04-22T12:38:47.599Z,9.83
2019-04-22T12:41:17.930Z,9.10
2019-04-22T12:43:47.513Z,9.60
2019-04-22T12:46:18.353Z,9.25
2019-04-22T12:48:47.176Z,8.80
2019-04-22T12:51:15.980Z,9.70
2019-04-22T12:53:46.249Z,10.03
2019-04-22T12:56:15.464Z,8.80
2019-04-22T12:58:45.788Z,9.05
2019-04-22T13:01:15.130Z,9.23
2019-04-22T13:03:44.664Z,8.83
2019-04-22T13:06:14.251Z,9.25
2019-04-22T13:08:43.567Z,9.20
2019-04-22T13:11:16.581Z,9.30
2019-04-22T13:13:43.039Z,9.18
2019-04-22T13:16:13.363Z,9.58
2019-04-22T13:18:50.259Z,8.53
2019-04-22T13:21:14.879Z,9.20
2019-04-22T13:23:44.516Z,8.95
2019-04-22T13:26:14.962Z,9.48
2019-04-22T13:28:45.103Z,9.05
2019-04-22T13:31:14.160Z,9.45
2019-04-22T13:33:43.172Z,9.73
2019-04-22T13:36:12.073Z,9.38
2019-04-22T13:38:42.846Z,9.25
2019-04-22T13:41:26.762Z,8.63
2019-04-22T13:43:42.916Z,12.68
2019-04-22T13:46:12.428Z,9.48
2019-04-22T13:49:11.158Z,9.35
2019-04-22T13:54:37.135Z,9.28
2019-04-22T13:56:31.474Z,9.03
2019-04-22T13:58:57.702Z,9.48
2019-04-22T14:01:16.542Z,9.50
2019-04-22T14:06:29.005Z,9.03
2019-04-22T14:08:59.069Z,10.67
2019-04-22T14:11:39.037Z,9.85
2019-04-22T14:13:58.832Z,9.35
2019-04-22T14:16:28.999Z,9.90
2019-04-22T14:18:58.221Z,9.50
2019-04-22T14:21:27.427Z,14.75
2019-04-22T14:23:56.444Z,10.00
2019-04-22T14:26:27.093Z,12.50
2019-04-22T14:28:56.008Z,9.65
2019-04-22T14:31:26.530Z,9.90
2019-04-22T14:33:59.776Z,9.28
2019-04-22T14:36:27.476Z,8.83
2019-04-22T14:38:57.788Z,10.10
2019-04-22T14:41:42.919Z,9.27
2019-04-22T14:45:00.771Z,9.93
2019-04-22T14:46:56.740Z,10.35
2019-04-22T14:49:26.204Z,9.45
2019-04-22T14:51:51.549Z,9.35
2019-04-22T14:54:16.906Z,9.78
2019-04-22T14:56:30.522Z,10.10
2019-04-22T14:59:00.811Z,9.45
2019-04-22T15:01:30.749Z,10.20
2019-04-22T15:04:00.832Z,10.53
2019-04-22T15:06:31.532Z,9.70
2019-04-22T15:09:01.669Z,9.75
2019-04-22T15:11:43.705Z,9.95
2019-04-22T15:14:01.396Z,10.32
2019-04-22T15:16:36.375Z,9.48
2019-04-22T15:19:07.632Z,9.88
2019-04-22T15:24:25.280Z,9.85
2019-04-22T15:26:56.495Z,9.83
2019-04-22T15:29:25.530Z,9.43
2019-04-22T15:31:55.662Z,9.15
2019-04-22T15:34:25.064Z,9.63
2019-04-22T15:36:54.215Z,9.85
2019-04-22T15:39:23.245Z,9.13
2019-04-22T15:42:00.351Z,9.83
2019-04-22T15:44:23.975Z,9.63
2019-04-22T15:46:53.274Z,9.23
2019-04-22T15:49:22.481Z,8.85
2019-04-22T15:51:53.242Z,8.80
2019-04-22T15:54:23.498Z,9.58
2019-04-22T15:56:52.719Z,9.83
2019-04-22T15:59:43.451Z,9.33
2019-04-22T16:01:53.157Z,9.55
2019-04-22T16:04:23.067Z,10.23
2019-04-22T16:06:52.771Z,9.40
2019-04-22T16:09:22.768Z,10.40
2019-04-22T16:11:51.924Z,9.45
2019-04-22T16:14:23.931Z,12.45
2019-04-22T16:16:52.497Z,9.60
2019-04-22T16:19:22.947Z,9.80
2019-04-22T16:22:03.713Z,9.20
2019-04-22T16:24:45.871Z,9.50
2019-04-22T16:27:16.713Z,9.50
2019-04-22T16:29:45.592Z,9.28
2019-04-22T16:32:15.650Z,9.05
2019-04-22T16:34:45.707Z,9.75
2019-04-22T16:37:14.801Z,10.03
2019-04-22T16:39:46.739Z,9.75
2019-04-22T16:42:25.958Z,8.85
2019-04-22T16:44:47.396Z,9.38
2019-04-22T16:47:15.724Z,10.10
2019-04-22T16:49:45.669Z,9.33
2019-04-22T16:52:16.142Z,9.00
2019-04-22T16:54:46.511Z,10.00
2019-04-22T16:57:15.816Z,10.40
2019-04-22T16:59:44.833Z,9.50
2019-04-22T17:02:26.209Z,10.00
2019-04-22T17:04:59.879Z,9.85
2019-04-22T17:07:29.893Z,10.32
2019-04-22T17:09:59.788Z,9.90
2019-04-22T17:12:41.898Z,10.08
2019-04-22T17:15:05.720Z,10.10
2019-04-22T17:17:30.798Z,10.05
2019-04-22T17:19:59.886Z,9.58
2019-04-22T17:22:29.515Z,11.12
2019-04-22T17:25:00.128Z,10.80
2019-04-22T17:27:31.384Z,11.57
2019-04-22T17:29:59.706Z,11.35
2019-04-22T17:32:28.898Z,11.25
2019-04-22T17:34:59.246Z,11.45
2019-04-22T17:37:32.057Z,12.05
2019-04-22T17:40:14.657Z,11.73
2019-04-22T17:42:53.302Z,15.20
2019-04-22T17:45:31.752Z,12.20
2019-04-22T17:48:12.852Z,11.60
2019-04-22T17:50:57.896Z,12.88
2019-04-22T17:53:24.894Z,11.95
2019-04-22T17:55:49.225Z,12.98
2019-04-22T17:58:21.054Z,12.88
2019-04-22T18:00:44.502Z,13.90
2019-04-22T18:03:08.752Z,14.05
2019-04-22T18:05:34.747Z,14.98
2019-04-22T18:08:21.784Z,14.53
2019-04-22T18:10:51.020Z,14.35
2019-04-22T18:13:25.216Z,14.53
2019-04-22T18:15:54.915Z,15.10
2019-04-22T18:18:24.464Z,17.27
2019-04-22T18:20:47.519Z,19.32
2019-04-22T18:23:09.642Z,16.48
2019-04-22T18:25:53.438Z,15.30
2019-04-22T18:28:25.630Z,15.15
2019-04-22T18:30:52.510Z,15.28
2019-04-22T18:33:24.264Z,16.00
2019-04-22T18:35:58.386Z,19.17
2019-04-22T18:38:32.466Z,16.10
2019-04-22T18:40:55.592Z,15.83
2019-04-22T18:43:28.987Z,15.90
2019-04-22T18:46:00.276Z,15.05
2019-04-22T18:48:25.524Z,15.88
2019-04-22T18:51:06.576Z,15.85
2019-04-22T18:53:54.104Z,15.63
2019-04-22T18:56:25.410Z,15.35
2019-04-22T18:58:47.505Z,16.00
2019-04-22T19:01:08.179Z,16.65
2019-04-22T19:03:49.774Z,19.02
2019-04-22T19:06:36.859Z,18.37
2019-04-22T19:09:06.452Z,18.10
2019-04-22T19:11:27.009Z,18.65
2019-04-22T19:16:36.148Z,18.30
2019-04-22T19:19:20.517Z,19.07
2019-04-22T19:21:35.490Z,18.95
2019-04-22T19:23:59.756Z,21.68
2019-04-22T19:26:44.377Z,21.42
2019-04-22T19:29:03.782Z,22.13
2019-04-22T19:31:37.346Z,21.52
2019-04-22T19:34:04.585Z,21.05
2019-04-22T19:36:42.232Z,22.67
2019-04-22T19:39:04.404Z,23.62
2019-04-22T19:41:57.977Z,22.95
2019-04-22T19:44:09.569Z,21.50
2019-04-22T19:46:34.581Z,26.07
2019-04-22T19:49:10.314Z,23.85
2019-04-22T19:51:47.650Z,23.90
2019-04-22T19:54:07.654Z,29.63
2019-04-22T19:56:35.699Z,26.60
2019-04-22T19:59:12.135Z,28.27
2019-04-22T20:01:49.818Z,22.40
2019-04-22T20:04:34.650Z,26.33
2019-04-22T20:07:07.357Z,21.57
2019-04-22T20:09:41.917Z,23.07
2019-04-22T20:12:04.384Z,21.33
2019-04-22T20:14:41.268Z,20.27
2019-04-22T20:17:02.568Z,23.65
2019-04-22T20:19:45.383Z,22.35
2019-04-22T20:22:11.461Z,24.67
2019-04-22T20:24:26.529Z,23.65
2019-04-22T20:27:16.383Z,61.83
2019-04-22T20:29:41.552Z,55.90
2019-04-22T20:32:11.568Z,45.25
2019-04-22T20:34:44.593Z,23.05
2019-04-22T20:37:16.577Z,26.87
2019-04-22T20:39:48.215Z,27.20
2019-04-22T20:44:46.129Z,24.15
2019-04-22T20:47:10.172Z,22.98
2019-04-22T20:49:47.148Z,24.30
2019-04-22T20:54:44.593Z,28.20
2019-04-22T20:57:15.506Z,29.77
2019-04-22T20:59:44.291Z,24.25
2019-04-22T21:02:13.510Z,27.73
2019-04-22T21:04:38.328Z,25.48
2019-04-22T21:07:15.126Z,23.83
2019-04-22T21:09:49.011Z,22.02
2019-04-22T21:12:14.924Z,21.85
2019-04-22T21:14:57.319Z,21.85
2019-04-22T21:17:29.070Z,20.80
2019-04-22T21:20:00.758Z,20.27
2019-04-22T21:22:22.766Z,28.90
2019-04-22T21:24:48.400Z,69.55
2019-04-22T21:27:45.508Z,107.47
2019-04-22T21:29:52.057Z,115.08
2019-04-22T21:32:31.293Z,123.72
2019-04-22T21:35:19.834Z,55.17
2019-04-22T21:37:53.084Z,40.25
2019-04-22T21:39:57.948Z,25.75
2019-04-22T21:42:39.977Z,25.68
2019-04-22T21:44:58.617Z,23.65
2019-04-22T21:47:46.187Z,22.75
2019-04-22T21:50:21.411Z,22.07
2019-04-22T21:52:33.242Z,24.72
2019-04-22T21:55:10.304Z,44.55
2019-04-22T21:57:57.172Z,40.58
2019-04-22T22:00:31.321Z,23.90
2019-04-22T22:02:59.212Z,26.15
2019-04-22T22:05:19.029Z,24.52
2019-04-22T22:07:40.363Z,24.47
2019-04-22T22:10:27.099Z,24.52
2019-04-22T22:13:00.691Z,25.62
2019-04-22T22:15:30.323Z,22.20
2019-04-22T22:17:55.754Z,22.22
2019-04-22T22:20:34.066Z,22.50
2019-04-22T22:23:09.181Z,22.82
2019-04-22T22:25:30.193Z,22.62
2019-04-22T22:28:01.161Z,27.73
2019-04-22T22:30:48.292Z,22.82
2019-04-22T22:33:05.834Z,22.87
2019-04-22T22:35:36.047Z,22.32
2019-04-22T22:38:06.721Z,21.77
2019-04-22T22:40:21.068Z,22.35
2019-04-22T22:42:49.894Z,25.45
2019-04-22T22:45:28.085Z,42.33
2019-04-22T22:48:13.373Z,56.15
2019-04-22T22:50:37.498Z,42.27
2019-04-22T22:55:39.873Z,35.48
2019-04-22T22:58:13.151Z,26.20
2019-04-22T23:00:42.805Z,23.70
2019-04-22T23:05:45.357Z,21.45
2019-04-22T23:10:52.915Z,22.22
2019-04-22T23:13:20.505Z,22.40
2019-04-22T23:15:38.721Z,23.38
2019-04-22T23:17:54.135Z,21.42
2019-04-22T23:20:27.495Z,21.75
2019-04-22T23:23:17.270Z,24.32
2019-04-22T23:25:54.783Z,22.30
2019-04-22T23:28:24.493Z,23.05
2019-04-22T23:31:04.195Z,24.18
2019-04-22T23:33:57.280Z,22.98
2019-04-22T23:36:47.555Z,21.27
2019-04-22T23:39:17.110Z,22.77
2019-04-22T23:41:51.209Z,21.87
2019-04-22T23:44:17.777Z,22.52
2019-04-22T23:47:01.588Z,21.00
2019-04-22T23:49:29.829Z,20.20
2019-04-22T23:52:10.151Z,20.62
2019-04-22T23:54:44.935Z,22.90
2019-04-22T23:57:09.018Z,21.12
